Time;durP1;ratioP1;P1;durP2;ratioP2;P2;SDS_P1;SDS_P2;PMS_P1;PMS_P2;Temp;Humidity;BMP_temperature;BMP_pressure;BME280_temperature;BME280_humidity;BME280_pressure;Samples;Min_cycle;Max_cycle;Signal;HPM_P1;HPM_P2
2022/11/28 00:01:28;;;;;;;;;12.25;12.25;;;;;9.19;85.42;100285.34;5055695;28;46676;-73
2022/11/28 00:03:54;;;;;;;;;13.00;13.00;;;;;9.25;85.83;100291.28;5055598;28;45389;-71
2022/11/28 00:06:20;;;;;;;;;12.00;12.00;;;;;9.27;86.07;100281.56;5054775;28;45408;-73
2022/11/28 00:08:45;;;;;;;;;14.50;14.50;;;;;9.27;85.95;100274.56;5054982;28;45348;-71
2022/11/28 00:11:12;;;;;;;;;12.50;12.50;;;;;9.25;85.90;100255.41;5055732;28;46402;-72
2022/11/28 00:13:38;;;;;;;;;12.75;12.75;;;;;9.28;86.17;100257.91;5055838;28;45482;-73
2022/11/28 00:16:07;;;;;;;;;11.75;11.75;;;;;9.30;85.96;100257.81;5055660;28;45713;-72
2022/11/28 00:18:33;;;;;;;;;10.75;10.75;;;;;9.30;85.96;100253.44;5055841;28;45339;-72
2022/11/28 00:21:07;;;;;;;;;11.00;11.00;;;;;9.29;85.96;100240.38;5055051;28;45484;-72
2022/11/28 00:23:33;;;;;;;;;12.25;12.25;;;;;9.30;86.23;100240.31;5088530;27;45905;-72
2022/11/28 00:26:02;;;;;;;;;12.25;12.25;;;;;9.34;86.44;100254.16;5055830;28;45421;-73
2022/11/28 00:28:27;;;;;;;;;10.50;10.50;;;;;9.32;86.18;100243.75;5055958;28;45459;-72
2022/11/28 00:30:52;;;;;;;;;10.25;10.25;;;;;9.33;86.28;100239.31;5088410;27;47406;-73
2022/11/28 00:33:18;;;;;;;;;10.75;10.75;;;;;9.36;86.30;100244.44;5055324;28;45280;-71
2022/11/28 00:35:43;;;;;;;;;12.25;12.25;;;;;9.37;86.46;100226.94;5055527;28;45379;-72
2022/11/28 00:38:09;;;;;;;;;11.00;11.00;;;;;9.39;86.54;100233.00;5055596;28;45689;-72
2022/11/28 00:40:34;;;;;;;;;12.50;12.50;;;;;9.33;86.60;100224.44;5054857;28;45380;-72
2022/11/28 00:42:59;;;;;;;;;12.50;12.50;;;;;9.36;86.90;100226.06;5055346;28;45140;-74
2022/11/28 00:45:25;;;;;;;;;12.00;12.00;;;;;9.33;86.51;100223.56;5055541;28;45420;-73
2022/11/28 00:47:50;;;;;;;;;8.50;8.50;;;;;9.36;86.90;100231.31;5055794;28;45274;-72
2022/11/28 00:50:16;;;;;;;;;14.50;14.00;;;;;9.41;86.90;100224.13;5055026;28;46094;-72
2022/11/28 00:52:41;;;;;;;;;14.25;14.25;;;;;9.33;86.80;100207.81;5054997;28;45300;-72
2022/11/28 00:55:07;;;;;;;;;9.75;9.75;;;;;9.42;86.56;100225.81;5054491;28;45390;-72
2022/11/28 00:57:33;;;;;;;;;13.25;13.25;;;;;9.42;86.54;100219.72;5054911;28;45228;-71
2022/11/28 00:59:58;;;;;;;;;9.25;9.25;;;;;9.41;86.96;100221.50;5054595;28;46277;-72
2022/11/28 01:02:24;;;;;;;;;12.75;12.75;;;;;9.48;87.04;100229.97;5054724;28;45496;-71
2022/11/28 01:04:49;;;;;;;;;12.50;12.50;;;;;9.46;86.92;100221.31;5054655;28;45336;-70
2022/11/28 01:07:15;;;;;;;;;10.25;10.25;;;;;9.50;87.00;100228.16;5055084;28;45384;-71
2022/11/28 01:09:40;;;;;;;;;14.25;14.25;;;;;9.51;86.86;100224.59;5054274;28;51544;-71
2022/11/28 01:12:05;;;;;;;;;12.75;12.75;;;;;9.49;86.89;100216.78;5053196;28;45362;-72
2022/11/28 01:14:31;;;;;;;;;12.25;12.25;;;;;9.54;86.97;100223.59;5054816;28;45884;-73
2022/11/28 01:16:56;;;;;;;;;11.75;11.75;;;;;9.53;86.80;100216.66;5055087;28;45522;-69
2022/11/28 01:19:21;;;;;;;;;8.75;8.75;;;;;9.49;86.64;100221.19;5054937;28;45396;-71
2022/11/28 01:21:47;;;;;;;;;12.75;12.75;;;;;9.58;86.87;100230.47;5054428;28;45374;-73
2022/11/28 01:24:13;;;;;;;;;13.25;11.25;;;;;9.54;86.84;100227.09;5054569;28;45319;-73
2022/11/28 01:26:39;;;;;;;;;9.50;9.50;;;;;9.59;86.44;100226.94;5054494;28;45421;-72
2022/11/28 01:29:04;;;;;;;;;10.25;10.25;;;;;9.53;86.41;100216.66;5054030;28;46435;-70
2022/11/28 01:31:30;;;;;;;;;9.75;9.75;;;;;9.59;86.79;100225.13;5054567;28;45378;-73
2022/11/28 01:33:56;;;;;;;;;12.00;11.00;;;;;9.57;86.82;100226.13;5054637;28;45246;-72
2022/11/28 01:36:22;;;;;;;;;9.50;9.50;;;;;9.59;86.65;100225.13;5055135;28;45614;-72
2022/11/28 01:38:48;;;;;;;;;10.00;10.00;;;;;9.60;86.74;100234.72;5052794;28;46786;-73
2022/11/28 01:41:17;;;;;;;;;37.50;34.00;;;;;9.59;86.36;100227.75;5054222;28;45437;-71
2022/11/28 01:44:00;;;;;;;;;13.75;13.75;;;;;9.67;86.95;100237.97;5054538;28;45402;-72
2022/11/28 01:46:26;;;;;;;;;9.75;9.75;;;;;9.68;86.50;100250.16;5054684;28;45272;-72
2022/11/28 01:48:53;;;;;;;;;13.00;13.00;;;;;9.69;86.66;100243.13;5054288;28;45294;-71
2022/11/28 01:51:19;;;;;;;;;13.75;13.75;;;;;9.68;86.36;100244.06;5053969;28;45216;-72
2022/11/28 01:53:46;;;;;;;;;13.75;13.75;;;;;9.67;86.74;100237.09;5054293;28;45391;-70
2022/11/28 01:56:16;;;;;;;;;10.00;10.00;;;;;9.71;86.48;100246.56;5087407;27;45456;-72
2022/11/28 01:58:46;;;;;;;;;12.75;12.75;;;;;9.70;86.53;100243.09;5054352;28;45371;-71
2022/11/28 02:01:12;;;;;;;;;10.25;10.25;;;;;9.77;86.52;100251.53;5054225;28;45390;-72
2022/11/28 02:03:43;;;;;;;;;10.75;10.75;;;;;9.74;86.23;100246.41;5054070;28;45401;-70
2022/11/28 02:06:10;;;;;;;;;12.25;12.25;;;;;9.80;86.52;100256.66;5086776;27;45712;-72
2022/11/28 02:08:35;;;;;;;;;12.00;12.00;;;;;9.83;86.28;100263.56;5053721;28;45771;-71
2022/11/28 02:11:28;;;;;;;;;11.75;11.75;;;;;9.87;86.50;100262.53;5053863;28;45516;-72
2022/11/28 02:14:15;;;;;;;;;12.75;12.75;;;;;9.92;86.42;100266.66;5086599;27;45192;-72
2022/11/28 02:17:05;;;;;;;;;11.00;11.00;;;;;9.94;85.97;100258.72;5054168;28;45296;-71
2022/11/28 02:19:30;;;;;;;;;9.25;9.25;;;;;9.97;85.98;100261.22;5053868;28;45317;-71
2022/11/28 02:22:17;;;;;;;;;11.25;11.25;;;;;9.99;86.13;100246.25;5054185;28;45270;-71
2022/11/28 02:25:01;;;;;;;;;13.00;13.00;;;;;10.02;85.70;100255.75;5086676;27;45464;-71
2022/11/28 02:28:03;;;;;;;;;12.00;12.00;;;;;10.03;86.04;100236.44;5054704;28;45331;-69
2022/11/28 02:30:55;;;;;;;;;13.75;13.75;;;;;10.04;85.68;100243.38;5057181;28;46304;-71
2022/11/28 02:33:33;;;;;;;;;12.50;12.50;;;;;10.07;85.98;100248.50;5057259;27;45561;-72
2022/11/28 02:36:27;;;;;;;;;12.00;12.00;;;;;10.08;85.34;100240.59;5058100;28;45414;-73
2022/11/28 02:39:10;;;;;;;;;12.50;12.50;;;;;10.12;85.41;100241.31;5057500;28;45414;-71
2022/11/28 02:41:55;;;;;;;;;15.00;13.25;;;;;10.13;85.58;100234.28;5089251;27;46027;-72
2022/11/28 02:44:33;;;;;;;;;11.50;11.50;;;;;10.14;86.09;100243.84;5055358;28;45955;-72
2022/11/28 02:47:03;;;;;;;;;12.50;12.50;;;;;10.13;85.79;100237.75;5057314;28;45427;-70
2022/11/28 02:49:37;;;;;;;;;13.25;13.25;;;;;10.09;85.85;100217.81;5057415;28;45204;-71
2022/11/28 02:52:27;;;;;;;;;12.00;12.00;;;;;10.17;85.95;100223.56;5056694;28;46235;-69
2022/11/28 02:54:54;;;;;;;;;12.00;12.00;;;;;10.16;85.89;100218.38;5056562;28;45462;-69
2022/11/28 02:57:19;;;;;;;;;12.00;12.00;;;;;10.15;85.55;100208.78;5056755;28;45326;-70
2022/11/28 02:59:48;;;;;;;;;13.75;13.75;;;;;10.15;85.46;100203.50;5089509;27;45381;-70
2022/11/28 03:02:21;;;;;;;;;12.00;12.00;;;;;10.18;85.82;100203.38;5056551;28;45271;-73
2022/11/28 03:04:50;;;;;;;;;9.00;9.00;;;;;10.19;85.69;100205.09;5056892;28;45341;-71
2022/11/28 03:07:33;;;;;;;;;14.00;12.50;;;;;10.19;85.71;100211.22;5056815;28;45360;-70
2022/11/28 03:10:04;;;;;;;;;12.50;12.50;;;;;10.19;85.38;100200.69;5057387;28;45226;-74
2022/11/28 03:12:49;;;;;;;;;12.25;12.25;;;;;10.16;85.56;100187.69;5089435;27;47590;-71
2022/11/28 03:15:21;;;;;;;;;17.75;17.75;;;;;10.22;86.00;100192.66;5088801;27;45428;-72
2022/11/28 03:18:09;;;;;;;;;10.50;10.50;;;;;10.22;85.28;100197.06;5056555;28;45362;-71
2022/11/28 03:20:46;;;;;;;;;12.00;12.00;;;;;10.22;85.25;100194.44;5056850;28;45462;-69
2022/11/28 03:23:33;;;;;;;;;13.00;13.00;;;;;10.17;85.49;100189.41;5056498;28;45548;-70
2022/11/28 03:26:10;;;;;;;;;12.25;12.25;;;;;10.17;85.28;100193.78;5089281;27;46049;-71
2022/11/28 03:28:48;;;;;;;;;14.75;14.75;;;;;10.14;85.15;100201.81;5086702;27;45274;-72
2022/11/28 03:31:26;;;;;;;;;13.75;13.75;;;;;10.16;85.47;100206.09;5056603;28;45447;-70
2022/11/28 03:33:58;;;;;;;;;12.50;12.50;;;;;10.13;85.22;100200.97;5056197;28;45338;-71
2022/11/28 03:36:33;;;;;;;;;14.50;14.50;;;;;10.14;85.34;100204.44;5056222;28;45360;-72
2022/11/28 03:39:07;;;;;;;;;12.25;12.25;;;;;10.15;85.97;100208.78;5089208;27;45460;-72
2022/11/28 03:41:48;;;;;;;;;15.25;15.25;;;;;10.15;85.56;100212.28;5057340;28;45331;-71
2022/11/28 03:44:38;;;;;;;;;13.25;13.25;;;;;10.11;85.80;100207.19;5089067;27;46159;-73
2022/11/28 03:47:05;;;;;;;;;19.75;18.50;;;;;10.11;85.64;100218.59;5056076;28;45478;-71
2022/11/28 03:49:36;;;;;;;;;15.75;15.50;;;;;10.08;85.98;100210.84;5056317;28;45390;-71
2022/11/28 03:52:10;;;;;;;;;16.50;16.50;;;;;10.05;85.85;100214.44;5056450;28;45252;-72
2022/11/28 03:54:50;;;;;;;;;15.75;15.75;;;;;10.03;85.89;100211.03;5055596;28;46244;-71
2022/11/28 03:57:42;;;;;;;;;15.00;15.00;;;;;10.03;85.97;100204.91;5055904;28;45325;-72
2022/11/28 04:00:11;;;;;;;;;14.75;14.75;;;;;10.03;85.87;100200.50;5054733;27;45295;-72
2022/11/28 04:03:01;;;;;;;;;13.50;13.50;;;;;10.04;85.93;100199.59;5054693;28;45542;-72
2022/11/28 04:05:37;;;;;;;;;14.00;14.00;;;;;10.04;86.31;100191.72;5055826;28;45253;-71
2022/11/28 04:08:16;;;;;;;;;15.75;15.75;;;;;10.03;85.90;100194.38;5055965;28;45276;-73
2022/11/28 04:10:50;;;;;;;;;14.25;14.25;;;;;10.05;86.25;100198.66;5054318;28;45440;-70
2022/11/28 04:13:28;;;;;;;;;18.75;18.75;;;;;10.04;86.30;100196.97;5056000;28;45414;-72
2022/11/28 04:16:27;;;;;;;;;13.00;13.00;;;;;10.03;86.16;100197.00;5055702;28;46184;-72
2022/11/28 04:18:56;;;;;;;;;16.75;16.75;;;;;10.07;86.04;100206.47;5055472;28;45252;-73
2022/11/28 04:21:38;;;;;;;;;17.75;17.75;;;;;10.06;86.14;100205.63;5055649;28;45295;-72
2022/11/28 04:24:10;;;;;;;;;16.75;16.75;;;;;10.04;86.05;100212.72;5054384;28;45458;-71
2022/11/28 04:26:42;;;;;;;;;19.25;19.25;;;;;10.03;86.01;100203.13;5055434;28;45414;-73
2022/11/28 04:29:13;;;;;;;;;14.00;14.00;;;;;10.02;86.15;100192.69;5055335;28;45425;-72
2022/11/28 04:31:42;;;;;;;;;17.75;17.75;;;;;10.02;86.41;100192.69;5055583;28;45395;-74
2022/11/28 04:34:13;;;;;;;;;17.00;17.00;;;;;10.07;86.67;100207.34;5055506;28;45542;-69
2022/11/28 04:36:42;;;;;;;;;15.50;15.50;;;;;10.04;86.23;100204.84;5055321;28;45535;-71
2022/11/28 04:39:14;;;;;;;;;17.25;17.25;;;;;10.09;86.17;100204.66;5055204;28;45433;-71
2022/11/28 04:41:45;;;;;;;;;15.00;15.00;;;;;10.09;86.49;100202.88;5055279;28;45256;-71
2022/11/28 04:44:23;;;;;;;;;16.00;16.00;;;;;10.13;86.42;100202.72;5055560;28;45260;-71
2022/11/28 04:46:53;;;;;;;;;20.50;20.50;;;;;10.13;86.86;100208.84;5055261;28;46285;-72
2022/11/28 04:49:18;;;;;;;;;16.75;16.75;;;;;10.15;86.08;100206.16;5053672;28;45968;-73
2022/11/28 04:51:53;;;;;;;;;15.00;15.00;;;;;10.18;86.23;100219.16;5054677;28;45258;-72
2022/11/28 04:54:28;;;;;;;;;18.50;18.50;;;;;10.20;86.15;100223.44;5055346;28;45465;-72
2022/11/28 04:57:08;;;;;;;;;17.75;17.00;;;;;10.16;86.43;100221.00;5054818;28;45406;-72
2022/11/28 04:59:34;;;;;;;;;16.25;16.25;;;;;10.17;86.30;100223.56;5055164;28;45505;-71
2022/11/28 05:02:03;;;;;;;;;16.25;16.25;;;;;10.14;86.20;100223.69;5055417;28;45283;-72
2022/11/28 05:04:28;;;;;;;;;22.50;21.00;;;;;10.14;86.39;100217.56;5055383;28;45197;-72
2022/11/28 05:07:05;;;;;;;;;17.50;17.50;;;;;10.16;86.24;100211.34;5054594;28;45561;-71
2022/11/28 05:09:30;;;;;;;;;15.75;15.75;;;;;10.14;86.54;100191.28;5055052;28;45337;-71
2022/11/28 05:11:55;;;;;;;;;14.00;14.00;;;;;10.13;86.53;100185.19;5054944;28;45446;-71
2022/11/28 05:14:22;;;;;;;;;13.75;13.75;;;;;10.20;86.42;100197.16;5055061;28;45359;-71
2022/11/28 05:16:47;;;;;;;;;17.25;17.25;;;;;10.25;86.49;100199.56;5054742;28;45355;-71
2022/11/28 05:19:12;;;;;;;;;16.50;16.50;;;;;10.26;86.41;100200.41;5053595;28;45765;-72
2022/11/28 05:21:38;;;;;;;;;14.00;14.00;;;;;10.26;86.12;100200.41;5055264;28;45608;-70
2022/11/28 05:24:04;;;;;;;;;19.25;19.25;;;;;10.28;87.06;100199.41;5055650;28;45601;-71
2022/11/28 05:26:31;;;;;;;;;15.50;15.00;;;;;10.29;86.71;100203.75;5087249;27;46956;-72
2022/11/28 05:28:57;;;;;;;;;18.50;18.50;;;;;10.26;86.32;100209.16;5054789;28;45347;-72
2022/11/28 05:31:23;;;;;;;;;16.50;16.50;;;;;10.23;85.99;100198.75;5054584;28;45232;-73
2022/11/28 05:33:48;;;;;;;;;16.00;16.00;;;;;10.20;86.07;100191.88;5087088;27;45623;-72
2022/11/28 05:36:15;;;;;;;;;15.00;15.00;;;;;10.26;86.51;100193.38;5054504;28;45493;-72
2022/11/28 05:38:40;;;;;;;;;14.50;14.50;;;;;10.26;87.03;100189.91;5054437;28;45197;-71
2022/11/28 05:41:06;;;;;;;;;14.75;14.75;;;;;10.26;86.58;100189.91;5054876;28;45264;-71
2022/11/28 05:43:31;;;;;;;;;17.50;17.50;;;;;10.30;86.85;100200.19;5054791;28;45375;-73
2022/11/28 05:45:57;;;;;;;;;14.25;14.25;;;;;10.29;85.93;100198.50;5054267;28;45567;-71
2022/11/28 05:48:23;;;;;;;;;18.25;18.25;;;;;10.28;86.46;100209.94;5054347;28;45401;-71
2022/11/28 05:50:49;;;;;;;;;16.25;16.25;;;;;10.26;86.36;100209.16;5054291;28;45421;-70
2022/11/28 05:53:16;;;;;;;;;15.75;15.75;;;;;10.24;86.21;100211.00;5086774;27;45684;-73
2022/11/28 05:55:42;;;;;;;;;16.00;16.00;;;;;10.19;86.06;100200.69;5054128;28;45513;-71
2022/11/28 05:58:08;;;;;;;;;17.00;17.00;;;;;10.19;86.09;100199.81;5054630;28;45252;-71
2022/11/28 06:00:33;;;;;;;;;17.00;17.00;;;;;10.20;86.80;100193.66;5054150;28;45239;-70
2022/11/28 06:02:59;;;;;;;;;18.75;16.50;;;;;10.25;86.47;100209.22;5054581;28;45327;-72
2022/11/28 06:05:24;;;;;;;;;19.50;19.50;;;;;10.28;86.36;100209.94;5057631;28;45397;-73
2022/11/28 06:07:50;;;;;;;;;20.25;18.50;;;;;10.28;86.82;100212.56;5057815;28;45382;-72
2022/11/28 06:10:15;;;;;;;;;13.00;13.00;;;;;10.28;86.35;100209.09;5057751;28;45383;-72
2022/11/28 06:12:41;;;;;;;;;18.25;18.25;;;;;10.25;86.52;100212.69;5057966;28;45624;-72
2022/11/28 06:15:07;;;;;;;;;23.25;22.00;;;;;10.25;86.19;100211.84;5057589;28;46367;-72
2022/11/28 06:17:32;;;;;;;;;19.00;19.00;;;;;10.19;86.18;100205.94;5057591;27;45358;-72
2022/11/28 06:19:58;;;;;;;;;18.25;18.00;;;;;10.22;86.22;100215.47;5057394;28;45335;-72
2022/11/28 06:22:23;;;;;;;;;24.75;23.50;;;;;10.18;86.34;100220.00;5058046;28;45574;-71
2022/11/28 06:24:49;;;;;;;;;16.75;16.50;;;;;10.20;86.74;100223.44;5057551;28;45479;-71
2022/11/28 06:27:14;;;;;;;;;18.25;18.25;;;;;10.23;86.55;100238.19;5057366;28;45375;-70
2022/11/28 06:29:39;;;;;;;;;21.50;21.50;;;;;10.15;86.29;100216.66;5057839;28;45420;-71
2022/11/28 06:32:05;;;;;;;;;17.00;17.00;;;;;10.24;86.85;100232.00;5057973;28;45636;-71
2022/11/28 06:34:31;;;;;;;;;18.00;17.25;;;;;10.28;87.43;100241.47;5057073;28;45738;-70
2022/11/28 06:36:56;;;;;;;;;33.00;31.75;;;;;10.33;87.78;100236.03;5055879;28;45405;-72
2022/11/28 06:39:22;;;;;;;;;21.25;21.25;;;;;10.35;86.96;100237.66;5057401;28;45685;-73
2022/11/28 06:41:47;;;;;;;;;17.25;17.25;;;;;10.38;87.29;100236.66;5057582;28;45367;-71
2022/11/28 06:44:14;;;;;;;;;19.00;19.00;;;;;10.38;87.18;100234.88;5057058;28;45401;-71
2022/11/28 06:46:40;;;;;;;;;19.00;19.00;;;;;10.42;87.08;100243.53;5057608;28;45268;-72
2022/11/28 06:49:06;;;;;;;;;13.50;13.50;;;;;10.48;86.57;100247.63;5056859;28;45249;-70
2022/11/28 06:51:31;;;;;;;;;20.75;18.75;;;;;10.47;86.67;100245.94;5057215;28;45485;-71
2022/11/28 06:53:57;;;;;;;;;15.50;15.50;;;;;10.49;86.43;100254.59;5056982;28;45280;-72
2022/11/28 06:56:22;;;;;;;;;15.00;15.00;;;;;10.46;86.03;100252.13;5056705;28;45245;-72
2022/11/28 06:58:56;;;;;;;;;14.50;14.50;;;;;10.46;85.78;100255.63;5057011;28;45291;-70
2022/11/28 07:01:23;;;;;;;;;17.25;17.25;;;;;10.46;86.00;100262.63;5056944;28;45191;-70
2022/11/28 07:03:49;;;;;;;;;16.75;16.75;;;;;10.43;85.85;100257.50;5056355;28;47265;-71
2022/11/28 07:06:18;;;;;;;;;19.50;19.50;;;;;10.42;85.33;100256.69;5089031;27;45360;-70
2022/11/28 07:08:43;;;;;;;;;16.75;16.50;;;;;10.37;85.97;100243.69;5057398;28;45346;-73
2022/11/28 07:11:15;;;;;;;;;12.75;12.75;;;;;10.37;85.74;100248.94;5056189;28;45454;-72
2022/11/28 07:13:41;;;;;;;;;13.50;12.00;;;;;10.43;85.42;100265.41;5057077;28;45405;-72
2022/11/28 07:16:11;;;;;;;;;12.00;12.00;;;;;10.36;84.81;100251.66;5056203;28;45326;-69
2022/11/28 07:18:37;;;;;;;;;12.25;12.25;;;;;10.39;85.38;100262.03;5055294;28;45358;-70
2022/11/28 07:21:02;;;;;;;;;10.25;10.25;;;;;10.34;85.62;100249.09;5056974;28;45593;-71
2022/11/28 07:23:28;;;;;;;;;12.75;12.75;;;;;10.33;85.01;100257.91;5056201;28;46253;-70
2022/11/28 07:25:58;;;;;;;;;18.25;17.50;;;;;10.38;85.56;100262.97;5089031;27;45251;-73
2022/11/28 07:28:24;;;;;;;;;15.75;15.75;;;;;10.34;85.10;100259.59;5056389;28;45318;-71
2022/11/28 07:31:01;;;;;;;;;12.50;12.50;;;;;10.35;85.01;100258.69;5056486;28;45228;-72
2022/11/28 07:33:26;;;;;;;;;13.25;12.50;;;;;10.35;85.02;100252.59;5056234;28;45536;-72
2022/11/28 07:35:52;;;;;;;;;13.00;13.00;;;;;10.36;85.34;100263.03;5055818;28;45259;-71
2022/11/28 07:38:17;;;;;;;;;13.75;13.75;;;;;10.31;85.40;100248.38;5056487;28;45371;-71
2022/11/28 07:40:43;;;;;;;;;13.25;13.25;;;;;10.35;84.96;100266.56;5056641;28;45240;-71
2022/11/28 07:43:09;;;;;;;;;14.00;14.00;;;;;10.31;84.72;100280.78;5054175;28;47142;-70
2022/11/28 07:45:38;;;;;;;;;12.25;12.25;;;;;10.26;85.35;100274.88;5054298;28;45373;-71
2022/11/28 07:48:03;;;;;;;;;14.75;14.25;;;;;10.34;85.74;100285.06;5055903;28;45345;-71
2022/11/28 07:50:29;;;;;;;;;13.50;13.50;;;;;10.35;85.02;100284.13;5088655;27;45459;-70
2022/11/28 07:52:54;;;;;;;;;16.00;16.00;;;;;10.37;85.27;100280.50;5055630;28;45562;-72
2022/11/28 07:55:20;;;;;;;;;19.50;19.00;;;;;10.42;85.01;100279.47;5055515;28;45400;-72
2022/11/28 07:57:45;;;;;;;;;14.00;13.50;;;;;10.44;85.07;100278.50;5088258;27;49439;-70
2022/11/28 08:00:11;;;;;;;;;15.25;14.50;;;;;10.46;85.36;100281.91;5055914;28;45177;-70
2022/11/28 08:02:38;;;;;;;;;20.00;19.00;;;;;10.29;84.64;100256.31;5055589;28;45507;-70
2022/11/28 08:05:03;;;;;;;;;13.25;13.25;;;;;10.46;84.98;100279.28;5055526;28;45333;-71
2022/11/28 08:07:28;;;;;;;;;14.25;14.00;;;;;10.46;84.97;100286.31;5055546;28;45418;-70
2022/11/28 08:09:54;;;;;;;;;13.00;13.00;;;;;10.46;84.71;100288.94;5055773;28;45530;-71
2022/11/28 08:12:19;;;;;;;;;13.75;13.75;;;;;10.42;84.28;100285.59;5055183;28;46229;-70
2022/11/28 08:14:45;;;;;;;;;17.75;15.75;;;;;10.43;84.45;100284.69;5055495;28;45382;-70
2022/11/28 08:17:10;;;;;;;;;19.00;17.75;;;;;10.42;84.42;100290.00;5055382;28;45355;-72
2022/11/28 08:19:35;;;;;;;;;18.50;17.00;;;;;10.39;83.95;100290.97;5055318;28;45304;-71
2022/11/28 08:22:01;;;;;;;;;10.25;10.00;;;;;10.38;83.89;100292.72;5054835;28;46583;-72
2022/11/28 08:24:26;;;;;;;;;10.50;10.50;;;;;10.39;84.15;100293.59;5055157;28;45272;-71
2022/11/28 08:26:52;;;;;;;;;10.50;10.50;;;;;10.32;84.01;100293.00;5054430;28;45344;-71
2022/11/28 08:29:17;;;;;;;;;11.75;11.75;;;;;10.36;83.42;100302.44;5088460;27;45877;-72
2022/11/28 08:31:43;;;;;;;;;14.00;14.00;;;;;10.38;83.37;100308.50;5055638;28;46143;-70
2022/11/28 08:34:09;;;;;;;;;11.25;11.25;;;;;10.34;83.07;100299.03;5055093;28;45325;-71
2022/11/28 08:36:35;;;;;;;;;15.25;15.25;;;;;10.34;83.35;100299.03;5053924;28;45444;-70
2022/11/28 08:39:02;;;;;;;;;25.75;25.75;;;;;10.40;84.08;100305.84;5055471;28;45311;-70
2022/11/28 08:41:27;;;;;;;;;6.50;6.50;;;;;10.46;82.98;100309.97;5053463;28;45392;-71
2022/11/28 08:43:53;;;;;;;;;13.75;13.75;;;;;10.44;83.31;100298.66;5054577;28;45503;-72
2022/11/28 08:46:20;;;;;;;;;9.75;9.50;;;;;10.48;82.86;100302.88;5055384;28;45221;-70
2022/11/28 08:48:47;;;;;;;;;12.25;12.25;;;;;10.46;82.67;100299.44;5053909;28;45421;-71
2022/11/28 08:51:14;;;;;;;;;10.00;9.50;;;;;10.46;82.83;100289.81;5087031;27;47694;-72
2022/11/28 08:53:41;;;;;;;;;13.25;13.00;;;;;10.50;82.26;100287.88;5054915;28;45350;-72
2022/11/28 08:56:07;;;;;;;;;8.00;8.00;;;;;10.53;82.29;100293.00;5087842;27;45267;-72
2022/11/28 08:58:32;;;;;;;;;9.25;9.25;;;;;10.54;81.90;100291.22;5053919;28;45331;-72
2022/11/28 09:00:57;;;;;;;;;12.00;12.00;;;;;10.57;82.12;100291.94;5054900;28;46463;-71
2022/11/28 09:03:23;;;;;;;;;15.25;15.25;;;;;10.62;82.69;100291.75;5054857;28;45359;-70
2022/11/28 09:05:49;;;;;;;;;17.50;17.50;;;;;10.66;82.79;100293.31;5055379;28;45597;-70
2022/11/28 09:08:17;;;;;;;;;18.75;18.75;;;;;10.69;82.07;100284.44;5055066;28;45386;-71
2022/11/28 09:10:44;;;;;;;;;14.25;12.50;;;;;10.75;82.21;100281.53;5054707;28;46604;-71
2022/11/28 09:13:11;;;;;;;;;13.00;13.00;;;;;10.77;82.55;100283.16;5054775;28;45349;-71
2022/11/28 09:15:44;;;;;;;;;19.25;19.25;;;;;10.85;82.99;100293.34;5054293;28;45228;-70
2022/11/28 09:18:11;;;;;;;;;14.75;12.75;;;;;10.76;82.16;100270.09;5053309;28;45380;-72
2022/11/28 09:20:38;;;;;;;;;24.50;23.75;;;;;10.92;82.01;100299.16;5054305;28;45576;-70
2022/11/28 09:23:04;;;;;;;;;19.50;18.50;;;;;10.89;81.56;100291.41;5054178;28;45444;-71
2022/11/28 09:25:29;;;;;;;;;17.75;17.75;;;;;10.89;81.71;100288.78;5054315;28;45485;-71
2022/11/28 09:27:55;;;;;;;;;12.75;12.75;;;;;10.92;81.34;100293.88;5054420;28;45417;-71
2022/11/28 09:30:21;;;;;;;;;23.25;23.25;;;;;10.94;81.10;100299.94;5054136;28;45954;-71
2022/11/28 09:32:49;;;;;;;;;18.00;15.50;;;;;10.86;80.37;100305.56;5054419;28;45383;-72
2022/11/28 09:35:15;;;;;;;;;12.25;12.25;;;;;10.86;80.68;100305.56;5054298;28;45338;-72
2022/11/28 09:37:41;;;;;;;;;10.50;10.50;;;;;10.94;80.76;100307.81;5054086;28;45247;-70
2022/11/28 09:40:16;;;;;;;;;14.25;14.25;;;;;10.92;80.59;100307.91;5053935;28;45353;-72
2022/11/28 09:42:43;;;;;;;;;13.75;13.00;;;;;10.90;80.40;100315.03;5054254;28;45248;-71
2022/11/28 09:45:20;;;;;;;;;11.50;11.50;;;;;10.91;80.13;100313.22;5053950;28;45437;-71
2022/11/28 09:47:50;;;;;;;;;11.00;11.00;;;;;10.87;79.42;100312.53;5054236;28;45438;-70
2022/11/28 09:50:45;;;;;;;;;14.75;13.75;;;;;10.85;79.84;100319.66;5086458;27;46947;-71
2022/11/28 09:53:26;;;;;;;;;15.50;14.50;;;;;10.84;79.22;100324.97;5048619;28;45577;-72
2022/11/28 09:55:57;;;;;;;;;12.25;12.25;;;;;10.81;79.86;100324.19;5053921;28;45429;-70
2022/11/28 09:58:36;;;;;;;;;15.00;15.00;;;;;10.81;79.96;100316.28;5052714;28;45626;-70
2022/11/28 10:01:24;;;;;;;;;13.00;12.75;;;;;10.81;79.66;100311.03;5053817;28;46055;-71
2022/11/28 10:03:58;;;;;;;;;16.25;16.25;;;;;10.88;79.61;100305.47;5054726;28;45278;-71
2022/11/28 10:06:58;;;;;;;;;9.25;9.25;;;;;10.88;79.67;100298.47;5053968;28;45205;-71
2022/11/28 10:09:46;;;;;;;;;13.50;13.50;;;;;10.97;79.22;100315.59;5054160;28;45442;-69
2022/11/28 10:12:21;;;;;;;;;11.25;11.25;;;;;10.96;78.88;100317.38;5053585;28;45791;-72
2022/11/28 10:14:57;;;;;;;;;14.00;12.75;;;;;10.91;78.56;100303.56;5053742;28;45400;-70
2022/11/28 10:17:46;;;;;;;;;13.00;11.75;;;;;10.93;78.69;100312.25;5086640;27;45345;-70
2022/11/28 10:20:15;;;;;;;;;11.00;11.00;;;;;10.92;78.73;100313.19;5053936;28;45383;-72
2022/11/28 10:22:44;;;;;;;;;12.00;11.25;;;;;10.94;78.19;100313.97;5053391;28;46468;-71
2022/11/28 10:25:18;;;;;;;;;18.75;18.75;;;;;10.96;78.57;100321.78;5053671;28;45390;-70
2022/11/28 10:27:46;;;;;;;;;7.50;7.50;;;;;10.93;78.00;100322.78;5086184;27;45393;-72
2022/11/28 10:30:22;;;;;;;;;12.00;11.75;;;;;10.94;78.28;100321.84;5053649;28;45193;-72
2022/11/28 10:33:00;;;;;;;;;11.50;11.50;;;;;10.95;78.48;100320.06;5053607;28;45468;-72
2022/11/28 10:35:46;;;;;;;;;9.50;8.50;;;;;10.96;78.12;100317.38;5053607;28;45443;-71
2022/11/28 10:38:14;;;;;;;;;11.25;11.25;;;;;10.94;78.11;100307.81;5053769;28;45355;-71
2022/11/28 10:40:52;;;;;;;;;11.75;11.75;;;;;10.95;78.21;100318.31;5054099;28;45278;-71
2022/11/28 10:43:45;;;;;;;;;10.25;10.25;;;;;10.91;77.75;100319.38;5053748;28;46051;-73
2022/11/28 10:46:46;;;;;;;;;12.00;12.00;;;;;10.90;77.63;100307.13;5053296;28;45362;-71
2022/11/28 10:49:30;;;;;;;;;8.75;8.75;;;;;10.90;77.54;100309.75;5068424;27;45351;-68
2022/11/28 10:52:19;;;;;;;;;8.00;8.00;;;;;10.87;76.85;100312.53;5058609;27;45429;-68
2022/11/28 10:55:16;;;;;;;;;11.00;10.50;;;;;10.87;76.94;100309.03;5067769;27;45558;-72
2022/11/28 10:57:59;;;;;;;;;8.00;8.00;;;;;10.87;77.26;100309.03;5081181;27;45404;-71
2022/11/28 11:00:25;;;;;;;;;6.00;6.00;;;;;10.89;76.97;100315.09;5090848;27;45408;-68
2022/11/28 11:02:53;;;;;;;;;10.75;10.00;;;;;10.91;77.27;100316.72;5092682;27;45525;-71
2022/11/28 11:05:25;;;;;;;;;9.75;9.75;;;;;10.92;76.85;100307.91;5079597;27;46713;-72
2022/11/28 11:07:55;;;;;;;;;10.50;10.50;;;;;10.93;76.95;100301.72;5087200;27;45341;-72
2022/11/28 11:10:38;;;;;;;;;8.00;8.00;;;;;11.01;77.13;100303.97;5082920;27;45469;-74
2022/11/28 11:13:25;;;;;;;;;8.00;8.00;;;;;10.99;77.17;100289.22;5091625;27;45203;-74
2022/11/28 11:16:10;;;;;;;;;8.25;8.25;;;;;11.07;76.41;100302.88;5074638;27;46496;-71
2022/11/28 11:18:50;;;;;;;;;7.00;7.00;;;;;11.05;76.64;100299.44;5079475;27;45354;-72
2022/11/28 11:21:27;;;;;;;;;12.00;10.50;;;;;11.13;76.89;100310.47;5065341;27;45543;-71
2022/11/28 11:24:20;;;;;;;;;15.50;14.50;;;;;11.20;76.62;100317.16;5089714;27;45430;-72
2022/11/28 11:26:47;;;;;;;;;10.50;9.25;;;;;11.25;75.98;100322.22;5079466;27;46079;-71
2022/11/28 11:29:34;;;;;;;;;11.50;10.75;;;;;11.21;75.63;100321.50;5108177;27;45324;-71